sensor_id;sensor_type;location;lat;lon;timestamp;pressure;altitude;pressure_sealevel;temperature;humidity
70909;BME280;58554;52.006;5.926;2023-02-28T00:00:38;102323.38;;;-1.71;67.53
70909;BME280;58554;52.006;5.926;2023-02-28T00:03:04;102323.56;;;-1.62;67.34
70909;BME280;58554;52.006;5.926;2023-02-28T00:05:31;102317.66;;;-1.53;67.04
70909;BME280;58554;52.006;5.926;2023-02-28T00:07:58;102316.09;;;-1.45;67.01
70909;BME280;58554;52.006;5.926;2023-02-28T00:10:27;102321.34;;;-1.41;67.19
70909;BME280;58554;52.006;5.926;2023-02-28T00:12:59;102318.91;;;-1.33;67.20
70909;BME280;58554;52.006;5.926;2023-02-28T00:15:28;102311.25;;;-1.24;67.66
70909;BME280;58554;52.006;5.926;2023-02-28T00:17:58;102319.16;;;-1.16;67.26
70909;BME280;58554;52.006;5.926;2023-02-28T00:20:24;102314.94;;;-1.09;67.35
70909;BME280;58554;52.006;5.926;2023-02-28T00:22:53;102320.22;;;-1.03;67.56
70909;BME280;58554;52.006;5.926;2023-02-28T00:25:22;102321.16;;;-0.99;67.83
70909;BME280;58554;52.006;5.926;2023-02-28T00:27:50;102314.28;;;-0.96;67.68
70909;BME280;58554;52.006;5.926;2023-02-28T00:30:18;102316.97;;;-0.91;67.86
70909;BME280;58554;52.006;5.926;2023-02-28T00:32:46;102319.63;;;-0.87;67.78
70909;BME280;58554;52.006;5.926;2023-02-28T00:35:16;102310.16;;;-0.82;68.14
70909;BME280;58554;52.006;5.926;2023-02-28T00:37:43;102315.41;;;-0.78;67.98
70909;BME280;58554;52.006;5.926;2023-02-28T00:40:10;102321.53;;;-0.73;67.78
70909;BME280;58554;52.006;5.926;2023-02-28T00:42:37;102319.03;;;-0.69;67.43
70909;BME280;58554;52.006;5.926;2023-02-28T00:45:05;102317.28;;;-0.67;67.42
70909;BME280;58554;52.006;5.926;2023-02-28T00:47:32;102313.03;;;-0.63;67.66
70909;BME280;58554;52.006;5.926;2023-02-28T00:49:59;102300.94;;;-0.61;67.41
70909;BME280;58554;52.006;5.926;2023-02-28T00:52:28;102307.91;;;-0.57;67.40
70909;BME280;58554;52.006;5.926;2023-02-28T00:54:54;102307.97;;;-0.52;67.58
70909;BME280;58554;52.006;5.926;2023-02-28T00:57:21;102307.16;;;-0.48;67.29
70909;BME280;58554;52.006;5.926;2023-02-28T00:59:48;102308.09;;;-0.45;67.29
70909;BME280;58554;52.006;5.926;2023-02-28T01:02:15;102309.88;;;-0.41;67.25
70909;BME280;58554;52.006;5.926;2023-02-28T01:04:41;102314.22;;;-0.40;67.62
70909;BME280;58554;52.006;5.926;2023-02-28T01:07:08;102309.94;;;-0.37;67.94
70909;BME280;58554;52.006;5.926;2023-02-28T01:09:37;102303.88;;;-0.35;67.45
70909;BME280;58554;52.006;5.926;2023-02-28T01:12:05;102308.28;;;-0.31;67.46
70909;BME280;58554;52.006;5.926;2023-02-28T01:14:33;102314.34;;;-0.30;67.42
70909;BME280;58554;52.006;5.926;2023-02-28T01:17:00;102304.81;;;-0.28;67.37
70909;BME280;58554;52.006;5.926;2023-02-28T01:19:27;102295.31;;;-0.28;67.24
70909;BME280;58554;52.006;5.926;2023-02-28T01:21:54;102315.28;;;-0.24;67.23
70909;BME280;58554;52.006;5.926;2023-02-28T01:24:20;102313.53;;;-0.23;67.03
70909;BME280;58554;52.006;5.926;2023-02-28T01:26:49;102304.03;;;-0.23;67.28
70909;BME280;58554;52.006;5.926;2023-02-28T01:29:16;102310.13;;;-0.21;67.44
70909;BME280;58554;52.006;5.926;2023-02-28T01:31:43;102310.97;;;-0.22;67.29
70909;BME280;58554;52.006;5.926;2023-02-28T01:34:09;102315.34;;;-0.21;67.38
70909;BME280;58554;52.006;5.926;2023-02-28T01:36:36;102316.22;;;-0.18;67.04
70909;BME280;58554;52.006;5.926;2023-02-28T01:39:03;102312.75;;;-0.17;67.30
70909;BME280;58554;52.006;5.926;2023-02-28T01:41:32;102304.13;;;-0.15;67.17
70909;BME280;58554;52.006;5.926;2023-02-28T01:44:05;102313.69;;;-0.14;67.16
70909;BME280;58554;52.006;5.926;2023-02-28T01:46:52;102304.13;;;-0.13;67.25
70909;BME280;58554;52.006;5.926;2023-02-28T01:49:19;102298.09;;;-0.12;67.51
70909;BME280;58554;52.006;5.926;2023-02-28T01:51:48;102302.44;;;-0.10;67.47
70909;BME280;58554;52.006;5.926;2023-02-28T01:54:23;102302.44;;;-0.10;67.52
70909;BME280;58554;52.006;5.926;2023-02-28T01:56:55;102294.69;;;-0.08;67.63
70909;BME280;58554;52.006;5.926;2023-02-28T01:59:33;102295.56;;;-0.06;67.77
70909;BME280;58554;52.006;5.926;2023-02-28T02:02:02;102295.56;;;-0.05;67.70
70909;BME280;58554;52.006;5.926;2023-02-28T02:04:35;102290.38;;;-0.03;67.62
70909;BME280;58554;52.006;5.926;2023-02-28T02:07:05;102294.75;;;-0.02;67.81
70909;BME280;58554;52.006;5.926;2023-02-28T02:09:32;102299.09;;;0.00;67.90
70909;BME280;58554;52.006;5.926;2023-02-28T02:12:00;102293.03;;;0.01;67.75
70909;BME280;58554;52.006;5.926;2023-02-28T02:14:54;102293.94;;;0.04;67.77
70909;BME280;58554;52.006;5.926;2023-02-28T02:17:34;102296.53;;;0.05;68.02
70909;BME280;58554;52.006;5.926;2023-02-28T02:27:20;102294.84;;;0.10;67.49
70909;BME280;58554;52.006;5.926;2023-02-28T02:30:32;102290.56;;;0.11;67.64
70909;BME280;58554;52.006;5.926;2023-02-28T02:33:36;102291.47;;;0.16;67.21
70909;BME280;58554;52.006;5.926;2023-02-28T02:36:31;102301.06;;;0.21;67.30
70909;BME280;58554;52.006;5.926;2023-02-28T02:39:06;102304.56;;;0.24;67.02
70909;BME280;58554;52.006;5.926;2023-02-28T02:41:46;102298.50;;;0.26;66.76
70909;BME280;58554;52.006;5.926;2023-02-28T02:44:21;102295.94;;;0.29;66.59
70909;BME280;58554;52.006;5.926;2023-02-28T02:46:55;102294.22;;;0.31;66.39
70909;BME280;58554;52.006;5.926;2023-02-28T02:49:31;102298.59;;;0.34;66.41
70909;BME280;58554;52.006;5.926;2023-02-28T02:52:03;102308.97;;;0.35;66.25
70909;BME280;58554;52.006;5.926;2023-02-28T02:54:36;102302.94;;;0.36;66.04
70909;BME280;58554;52.006;5.926;2023-02-28T02:57:07;102302.06;;;0.37;66.10
70909;BME280;58554;52.006;5.926;2023-02-28T02:59:40;102301.25;;;0.40;66.01
70909;BME280;58554;52.006;5.926;2023-02-28T03:02:11;102309.91;;;0.40;65.89
70909;BME280;58554;52.006;5.926;2023-02-28T03:04:45;102309.94;;;0.44;65.74
70909;BME280;58554;52.006;5.926;2023-02-28T03:07:20;102305.63;;;0.46;65.79
70909;BME280;58554;52.006;5.926;2023-02-28T03:09:51;102309.97;;;0.47;65.57
70909;BME280;58554;52.006;5.926;2023-02-28T03:12:18;102319.50;;;0.48;65.60
70909;BME280;58554;52.006;5.926;2023-02-28T03:14:56;102309.97;;;0.47;65.55
70909;BME280;58554;52.006;5.926;2023-02-28T03:17:56;102311.72;;;0.48;65.34
70909;BME280;58554;52.006;5.926;2023-02-28T03:20:39;102312.59;;;0.48;65.23
70909;BME280;58554;52.006;5.926;2023-02-28T03:23:35;102310.88;;;0.50;65.08
70909;BME280;58554;52.006;5.926;2023-02-28T03:26:12;102308.25;;;0.49;65.09
70909;BME280;58554;52.006;5.926;2023-02-28T03:28:51;102309.13;;;0.49;65.02
70909;BME280;58554;52.006;5.926;2023-02-28T03:31:28;102312.63;;;0.51;64.92
70909;BME280;58554;52.006;5.926;2023-02-28T03:34:03;102314.34;;;0.49;64.90
70909;BME280;58554;52.006;5.926;2023-02-28T03:36:38;102311.72;;;0.49;64.83
70909;BME280;58554;52.006;5.926;2023-02-28T03:39:14;102317.78;;;0.50;64.96
70909;BME280;58554;52.006;5.926;2023-02-28T03:41:46;102311.72;;;0.49;64.79
70909;BME280;58554;52.006;5.926;2023-02-28T03:44:25;102312.59;;;0.50;64.90
70909;BME280;58554;52.006;5.926;2023-02-28T03:47:00;102316.91;;;0.48;65.16
70909;BME280;58554;52.006;5.926;2023-02-28T03:49:35;102312.59;;;0.47;65.11
70909;BME280;58554;52.006;5.926;2023-02-28T03:52:07;102314.28;;;0.43;65.01
70909;BME280;58554;52.006;5.926;2023-02-28T03:54:43;102310.78;;;0.41;64.88
70909;BME280;58554;52.006;5.926;2023-02-28T03:57:22;102308.16;;;0.39;64.80
70909;BME280;58554;52.006;5.926;2023-02-28T03:59:56;102307.28;;;0.39;64.55
70909;BME280;58554;52.006;5.926;2023-02-28T04:02:27;102302.09;;;0.39;64.59
70909;BME280;58554;52.006;5.926;2023-02-28T04:04:54;102295.16;;;0.39;64.63
70909;BME280;58554;52.006;5.926;2023-02-28T04:07:21;102296.88;;;0.37;64.25
70909;BME280;58554;52.006;5.926;2023-02-28T04:09:50;102300.34;;;0.36;64.32
70909;BME280;58554;52.006;5.926;2023-02-28T04:12:17;102298.56;;;0.35;64.28
70909;BME280;58554;52.006;5.926;2023-02-28T04:14:44;102302.03;;;0.33;64.20
70909;BME280;58554;52.006;5.926;2023-02-28T04:17:10;102289.88;;;0.30;64.41
70909;BME280;58554;52.006;5.926;2023-02-28T04:19:37;102293.31;;;0.28;64.63
70909;BME280;58554;52.006;5.926;2023-02-28T04:22:03;102295.91;;;0.26;64.32
70909;BME280;58554;52.006;5.926;2023-02-28T04:24:30;102301.09;;;0.26;64.67
70909;BME280;58554;52.006;5.926;2023-02-28T04:26:59;102296.78;;;0.25;64.47
70909;BME280;58554;52.006;5.926;2023-02-28T04:29:28;102295.00;;;0.24;64.50
70909;BME280;58554;52.006;5.926;2023-02-28T04:31:57;102290.69;;;0.23;64.67
70909;BME280;58554;52.006;5.926;2023-02-28T04:34:24;102294.13;;;0.22;64.60
70909;BME280;58554;52.006;5.926;2023-02-28T04:36:53;102293.25;;;0.21;64.64
70909;BME280;58554;52.006;5.926;2023-02-28T04:39:21;102291.50;;;0.20;64.96
70909;BME280;58554;52.006;5.926;2023-02-28T04:41:49;102294.09;;;0.19;65.00
70909;BME280;58554;52.006;5.926;2023-02-28T04:44:19;102290.63;;;0.17;64.96
70909;BME280;58554;52.006;5.926;2023-02-28T04:46:48;102294.94;;;0.15;65.09
70909;BME280;58554;52.006;5.926;2023-02-28T04:49:15;102290.56;;;0.14;65.19
70909;BME280;58554;52.006;5.926;2023-02-28T04:51:42;102299.25;;;0.13;65.34
70909;BME280;58554;52.006;5.926;2023-02-28T04:54:08;102288.81;;;0.11;65.21
70909;BME280;58554;52.006;5.926;2023-02-28T04:56:35;102290.56;;;0.11;65.23
70909;BME280;58554;52.006;5.926;2023-02-28T04:59:01;102298.34;;;0.09;65.14
70909;BME280;58554;52.006;5.926;2023-02-28T05:01:33;102298.34;;;0.11;65.28
70909;BME280;58554;52.006;5.926;2023-02-28T05:04:01;102304.41;;;0.11;65.55
70909;BME280;58554;52.006;5.926;2023-02-28T05:06:31;102298.34;;;0.11;65.18
70909;BME280;58554;52.006;5.926;2023-02-28T05:08:59;102294.84;;;0.10;65.51
70909;BME280;58554;52.006;5.926;2023-02-28T05:11:27;102298.34;;;0.12;65.41
70909;BME280;58554;52.006;5.926;2023-02-28T05:13:55;102291.38;;;0.10;65.50
70909;BME280;58554;52.006;5.926;2023-02-28T05:16:22;102300.06;;;0.10;65.61
70909;BME280;58554;52.006;5.926;2023-02-28T05:18:51;102296.63;;;0.11;65.62
70909;BME280;58554;52.006;5.926;2023-02-28T05:21:24;102290.56;;;0.11;65.23
70909;BME280;58554;52.006;5.926;2023-02-28T05:23:54;102293.16;;;0.11;65.23
70909;BME280;58554;52.006;5.926;2023-02-28T05:26:21;102296.63;;;0.11;65.51
70909;BME280;58554;52.006;5.926;2023-02-28T05:28:48;102306.13;;;0.09;65.66
70909;BME280;58554;52.006;5.926;2023-02-28T05:31:14;102300.03;;;0.07;65.68
70909;BME280;58554;52.006;5.926;2023-02-28T05:33:41;102301.78;;;0.07;65.79
70909;BME280;58554;52.006;5.926;2023-02-28T05:36:11;102315.63;;;0.06;65.74
70909;BME280;58554;52.006;5.926;2023-02-28T05:38:37;102303.50;;;0.05;65.91
70909;BME280;58554;52.006;5.926;2023-02-28T05:41:07;102304.31;;;0.04;65.71
70909;BME280;58554;52.006;5.926;2023-02-28T05:43:35;102314.72;;;0.04;65.83
70909;BME280;58554;52.006;5.926;2023-02-28T05:46:04;102313.00;;;0.03;65.80
70909;BME280;58554;52.006;5.926;2023-02-28T05:48:33;102306.03;;;0.01;66.00
70909;BME280;58554;52.006;5.926;2023-02-28T05:51:00;102307.81;;;0.03;66.17
70909;BME280;58554;52.006;5.926;2023-02-28T05:53:31;102300.00;;;0.03;65.94
70909;BME280;58554;52.006;5.926;2023-02-28T05:55:58;102299.09;;;0.02;65.99
70909;BME280;58554;52.006;5.926;2023-02-28T05:58:26;102318.19;;;0.03;66.07
70909;BME280;58554;52.006;5.926;2023-02-28T06:00:53;102313.84;;;0.01;65.97
70909;BME280;58554;52.006;5.926;2023-02-28T06:03:19;102314.72;;;0.04;66.16
70909;BME280;58554;52.006;5.926;2023-02-28T06:05:46;102308.69;;;0.05;66.07
70909;BME280;58554;52.006;5.926;2023-02-28T06:08:12;102295.69;;;0.05;66.01
70909;BME280;58554;52.006;5.926;2023-02-28T06:10:41;102306.94;;;0.05;65.83
70909;BME280;58554;52.006;5.926;2023-02-28T06:13:08;102335.59;;;0.07;66.13
70909;BME280;58554;52.006;5.926;2023-02-28T06:15:35;102326.88;;;0.06;66.15
70909;BME280;58554;52.006;5.926;2023-02-28T06:18:01;102326.00;;;0.04;66.12
70909;BME280;58554;52.006;5.926;2023-02-28T06:20:28;102317.34;;;0.05;65.98
70909;BME280;58554;52.006;5.926;2023-02-28T06:22:55;102323.47;;;0.09;65.83
70909;BME280;58554;52.006;5.926;2023-02-28T06:25:22;102320.00;;;0.10;65.97
70909;BME280;58554;52.006;5.926;2023-02-28T06:27:51;102323.50;;;0.13;65.74
70909;BME280;58554;52.006;5.926;2023-02-28T06:30:18;102324.41;;;0.15;65.60
70909;BME280;58554;52.006;5.926;2023-02-28T06:32:46;102335.69;;;0.17;65.61
70909;BME280;58554;52.006;5.926;2023-02-28T06:35:13;102340.06;;;0.20;65.75
70909;BME280;58554;52.006;5.926;2023-02-28T06:37:39;102331.44;;;0.24;65.58
70909;BME280;58554;52.006;5.926;2023-02-28T06:40:07;102334.06;;;0.26;65.58
70909;BME280;58554;52.006;5.926;2023-02-28T06:42:35;102344.50;;;0.27;65.36
70909;BME280;58554;52.006;5.926;2023-02-28T06:45:06;102343.63;;;0.28;65.36
70909;BME280;58554;52.006;5.926;2023-02-28T06:47:33;102351.44;;;0.30;65.30
70909;BME280;58554;52.006;5.926;2023-02-28T06:49:59;102353.19;;;0.32;65.11
70909;BME280;58554;52.006;5.926;2023-02-28T06:52:26;102348.00;;;0.35;64.74
70909;BME280;58554;52.006;5.926;2023-02-28T06:54:52;102355.00;;;0.38;64.72
70909;BME280;58554;52.006;5.926;2023-02-28T06:57:19;102355.03;;;0.42;64.55
70909;BME280;58554;52.006;5.926;2023-02-28T06:59:45;102357.69;;;0.47;64.67
70909;BME280;58554;52.006;5.926;2023-02-28T07:02:14;102353.41;;;0.51;64.44
70909;BME280;58554;52.006;5.926;2023-02-28T07:04:41;102355.16;;;0.55;64.24
70909;BME280;58554;52.006;5.926;2023-02-28T07:07:08;102367.34;;;0.59;64.33
70909;BME280;58554;52.006;5.926;2023-02-28T07:09:34;102363.03;;;0.61;64.15
70909;BME280;58554;52.006;5.926;2023-02-28T07:12:01;102362.22;;;0.65;64.25
70909;BME280;58554;52.006;5.926;2023-02-28T07:14:27;102369.19;;;0.71;64.10
70909;BME280;58554;52.006;5.926;2023-02-28T07:16:54;102365.75;;;0.75;64.01
70909;BME280;58554;52.006;5.926;2023-02-28T07:19:23;102360.63;;;0.79;64.09
70909;BME280;58554;52.006;5.926;2023-02-28T07:21:50;102363.22;;;0.82;63.72
70909;BME280;58554;52.006;5.926;2023-02-28T07:24:16;102361.50;;;0.85;63.49
70909;BME280;58554;52.006;5.926;2023-02-28T07:26:43;102355.44;;;0.84;63.34
70909;BME280;58554;52.006;5.926;2023-02-28T07:29:09;102363.25;;;0.84;63.34
70909;BME280;58554;52.006;5.926;2023-02-28T07:31:36;102378.00;;;0.82;63.37
70909;BME280;58554;52.006;5.926;2023-02-28T07:34:02;102382.31;;;0.83;63.13
70909;BME280;58554;52.006;5.926;2023-02-28T07:36:31;102377.09;;;0.80;63.15
70909;BME280;58554;52.006;5.926;2023-02-28T07:38:58;102375.34;;;0.80;62.92
70909;BME280;58554;52.006;5.926;2023-02-28T07:41:25;102375.38;;;0.82;62.88
70909;BME280;58554;52.006;5.926;2023-02-28T07:43:53;102371.97;;;0.88;63.43
70909;BME280;58554;52.006;5.926;2023-02-28T07:46:20;102370.31;;;0.96;63.11
70909;BME280;58554;52.006;5.926;2023-02-28T07:48:47;102375.56;;;1.05;63.15
70909;BME280;58554;52.006;5.926;2023-02-28T07:51:13;102377.41;;;1.15;62.97
70909;BME280;58554;52.006;5.926;2023-02-28T07:53:42;102378.34;;;1.28;62.99
70909;BME280;58554;52.006;5.926;2023-02-28T07:56:09;102377.59;;;1.43;63.19
70909;BME280;58554;52.006;5.926;2023-02-28T07:58:35;102375.22;;;1.86;64.36
70909;BME280;58554;52.006;5.926;2023-02-28T08:01:06;102373.69;;;2.42;65.47
70909;BME280;58554;52.006;5.926;2023-02-28T08:03:33;102370.28;;;2.91;64.72
70909;BME280;58554;52.006;5.926;2023-02-28T08:05:59;102372.00;;;3.18;64.25
70909;BME280;58554;52.006;5.926;2023-02-28T08:08:26;102377.19;;;3.56;64.29
70909;BME280;58554;52.006;5.926;2023-02-28T08:10:57;102371.78;;;4.09;64.19
70909;BME280;58554;52.006;5.926;2023-02-28T08:13:24;102381.06;;;4.60;63.52
70909;BME280;58554;52.006;5.926;2023-02-28T08:15:50;102379.84;;;5.12;63.67
70909;BME280;58554;52.006;5.926;2023-02-28T08:18:17;102374.09;;;5.64;63.31
70909;BME280;58554;52.006;5.926;2023-02-28T08:20:43;102371.81;;;6.11;63.36
70909;BME280;58554;52.006;5.926;2023-02-28T08:23:10;102372.19;;;6.48;62.43
70909;BME280;58554;52.006;5.926;2023-02-28T08:25:36;102370.03;;;6.74;61.24
70909;BME280;58554;52.006;5.926;2023-02-28T08:28:05;102366.13;;;6.99;60.30
70909;BME280;58554;52.006;5.926;2023-02-28T08:30:32;102360.31;;;7.31;60.56
70909;BME280;58554;52.006;5.926;2023-02-28T08:32:59;102355.19;;;7.70;60.24
70909;BME280;58554;52.006;5.926;2023-02-28T08:35:25;102360.31;;;8.20;59.73
70909;BME280;58554;52.006;5.926;2023-02-28T08:37:51;102356.75;;;8.62;58.71
70909;BME280;58554;52.006;5.926;2023-02-28T08:40:18;102368.03;;;9.04;59.56
70909;BME280;58554;52.006;5.926;2023-02-28T08:42:45;102361.94;;;9.37;57.35
70909;BME280;58554;52.006;5.926;2023-02-28T08:45:15;102365.78;;;9.58;57.96
70909;BME280;58554;52.006;5.926;2023-02-28T08:47:42;102363.56;;;10.05;56.90
70909;BME280;58554;52.006;5.926;2023-02-28T08:50:10;102359.84;;;10.40;55.43
70909;BME280;58554;52.006;5.926;2023-02-28T08:52:36;102366.47;;;10.82;55.25
70909;BME280;58554;52.006;5.926;2023-02-28T08:55:04;102354.13;;;11.09;54.11
70909;BME280;58554;52.006;5.926;2023-02-28T08:57:31;102352.19;;;11.39;52.94
70909;BME280;58554;52.006;5.926;2023-02-28T08:59:58;102351.47;;;11.35;52.61
70909;BME280;58554;52.006;5.926;2023-02-28T09:02:27;102354.00;;;11.12;51.66
70909;BME280;58554;52.006;5.926;2023-02-28T09:04:53;102361.91;;;11.13;52.10
70909;BME280;58554;52.006;5.926;2023-02-28T09:07:20;102357.44;;;11.41;50.70
70909;BME280;58554;52.006;5.926;2023-02-28T09:09:47;102354.81;;;11.64;50.32
70909;BME280;58554;52.006;5.926;2023-02-28T09:12:13;102351.03;;;11.95;50.13
70909;BME280;58554;52.006;5.926;2023-02-28T09:14:39;102356.03;;;12.26;49.24
70909;BME280;58554;52.006;5.926;2023-02-28T09:17:06;102364.03;;;12.70;49.08
70909;BME280;58554;52.006;5.926;2023-02-28T09:19:35;102352.63;;;13.11;48.09
70909;BME280;58554;52.006;5.926;2023-02-28T09:22:02;102354.50;;;13.29;47.62
70909;BME280;58554;52.006;5.926;2023-02-28T09:24:28;102348.66;;;13.62;46.88
70909;BME280;58554;52.006;5.926;2023-02-28T09:26:55;102357.97;;;14.10;46.82
70909;BME280;58554;52.006;5.926;2023-02-28T09:29:21;102347.34;;;14.66;45.42
70909;BME280;58554;52.006;5.926;2023-02-28T09:31:48;102358.81;;;14.85;42.60
70909;BME280;58554;52.006;5.926;2023-02-28T09:34:14;102347.25;;;15.04;43.42
70909;BME280;58554;52.006;5.926;2023-02-28T09:36:43;102352.03;;;15.32;42.48
70909;BME280;58554;52.006;5.926;2023-02-28T09:39:10;102356.44;;;15.66;41.89
70909;BME280;58554;52.006;5.926;2023-02-28T09:41:39;102344.81;;;15.85;41.15
70909;BME280;58554;52.006;5.926;2023-02-28T09:44:15;102342.75;;;16.06;38.93
70909;BME280;58554;52.006;5.926;2023-02-28T09:46:48;102342.59;;;16.25;40.36
70909;BME280;58554;52.006;5.926;2023-02-28T09:49:23;102350.06;;;16.50;39.99
70909;BME280;58554;52.006;5.926;2023-02-28T09:52:01;102345.91;;;16.76;38.38
70909;BME280;58554;52.006;5.926;2023-02-28T09:54:31;102342.88;;;17.12;38.84
70909;BME280;58554;52.006;5.926;2023-02-28T09:57:02;102339.03;;;17.47;38.16
70909;BME280;58554;52.006;5.926;2023-02-28T09:59:40;102343.94;;;17.69;36.69
70909;BME280;58554;52.006;5.926;2023-02-28T10:02:39;102334.75;;;18.01;34.54
70909;BME280;58554;52.006;5.926;2023-02-28T10:05:17;102335.19;;;18.23;36.50
70909;BME280;58554;52.006;5.926;2023-02-28T10:08:00;102328.72;;;18.39;34.03
70909;BME280;58554;52.006;5.926;2023-02-28T10:10:36;102326.22;;;18.51;35.66
70909;BME280;58554;52.006;5.926;2023-02-28T10:13:16;102331.97;;;18.72;33.85
70909;BME280;58554;52.006;5.926;2023-02-28T10:15:52;102331.56;;;18.78;36.04
70909;BME280;58554;52.006;5.926;2023-02-28T10:18:27;102322.28;;;18.96;35.34
70909;BME280;58554;52.006;5.926;2023-02-28T10:21:04;102330.69;;;19.17;34.74
70909;BME280;58554;52.006;5.926;2023-02-28T10:23:35;102327.69;;;19.35;33.66
70909;BME280;58554;52.006;5.926;2023-02-28T10:26:12;102314.59;;;19.43;32.96
70909;BME280;58554;52.006;5.926;2023-02-28T10:28:40;102322.53;;;19.57;33.62
70909;BME280;58554;52.006;5.926;2023-02-28T10:31:11;102323.09;;;19.75;32.69
70909;BME280;58554;52.006;5.926;2023-02-28T10:33:43;102320.09;;;19.67;32.90
70909;BME280;58554;52.006;5.926;2023-02-28T10:36:14;102320.06;;;19.80;31.88
70909;BME280;58554;52.006;5.926;2023-02-28T10:38:46;102314.91;;;19.77;31.64
70909;BME280;58554;52.006;5.926;2023-02-28T10:41:15;102311.19;;;19.67;31.22
70909;BME280;58554;52.006;5.926;2023-02-28T10:43:43;102308.34;;;19.81;31.32
70909;BME280;58554;52.006;5.926;2023-02-28T10:46:14;102304.63;;;20.08;31.19
70909;BME280;58554;52.006;5.926;2023-02-28T10:48:45;102300.53;;;20.15;30.13
70909;BME280;58554;52.006;5.926;2023-02-28T10:51:18;102306.00;;;20.13;31.08
70909;BME280;58554;52.006;5.926;2023-02-28T10:53:49;102307.31;;;20.45;29.87
70909;BME280;58554;52.006;5.926;2023-02-28T10:56:18;102311.97;;;20.54;30.23
70909;BME280;58554;52.006;5.926;2023-02-28T10:58:52;102303.34;;;20.61;29.37
70909;BME280;58554;52.006;5.926;2023-02-28T11:01:22;102303.91;;;20.78;30.38
70909;BME280;58554;52.006;5.926;2023-02-28T11:03:51;102295.63;;;20.92;29.83
70909;BME280;58554;52.006;5.926;2023-02-28T11:06:20;102296.28;;;21.07;28.60
70909;BME280;58554;52.006;5.926;2023-02-28T11:08:53;102304.97;;;21.11;28.65
70909;BME280;58554;52.006;5.926;2023-02-28T11:11:24;102290.69;;;21.21;29.17
70909;BME280;58554;52.006;5.926;2023-02-28T11:13:56;102296.69;;;21.48;29.30
70909;BME280;58554;52.006;5.926;2023-02-28T11:16:33;102295.34;;;21.76;28.84
70909;BME280;58554;52.006;5.926;2023-02-28T11:19:04;102290.59;;;21.79;27.82
70909;BME280;58554;52.006;5.926;2023-02-28T11:21:54;102278.84;;;21.69;26.65
70909;BME280;58554;52.006;5.926;2023-02-28T11:24:28;102288.50;;;21.72;28.38
70909;BME280;58554;52.006;5.926;2023-02-28T11:26:59;102279.66;;;21.81;28.28
70909;BME280;58554;52.006;5.926;2023-02-28T11:29:28;102283.75;;;21.75;28.25
70909;BME280;58554;52.006;5.926;2023-02-28T11:32:12;102279.72;;;21.58;25.65
70909;BME280;58554;52.006;5.926;2023-02-28T11:34:42;102277.38;;;20.73;28.19
70909;BME280;58554;52.006;5.926;2023-02-28T11:37:12;102270.94;;;19.28;28.19
70909;BME280;58554;52.006;5.926;2023-02-28T11:39:44;102286.63;;;17.58;28.82
70909;BME280;58554;52.006;5.926;2023-02-28T11:45:23;102277.63;;;14.94;29.47
70909;BME280;58554;52.006;5.926;2023-02-28T11:48:07;102280.75;;;14.12;30.58
70909;BME280;58554;52.006;5.926;2023-02-28T11:50:50;102283.03;;;13.44;30.97
70909;BME280;58554;52.006;5.926;2023-02-28T11:53:43;102279.38;;;13.26;32.08
70909;BME280;58554;52.006;5.926;2023-02-28T11:56:30;102280.72;;;14.31;32.45
70909;BME280;58554;52.006;5.926;2023-02-28T11:59:11;102276.09;;;15.56;30.46
70909;BME280;58554;52.006;5.926;2023-02-28T12:02:18;102273.59;;;16.49;29.78
70909;BME280;58554;52.006;5.926;2023-02-28T12:04:55;102268.06;;;17.41;30.62
70909;BME280;58554;52.006;5.926;2023-02-28T12:07:40;102251.25;;;18.36;30.36
70909;BME280;58554;52.006;5.926;2023-02-28T12:10:21;102252.16;;;19.15;29.18
70909;BME280;58554;52.006;5.926;2023-02-28T12:13:00;102246.88;;;19.65;27.39
70909;BME280;58554;52.006;5.926;2023-02-28T12:16:09;102253.38;;;20.11;26.12
70909;BME280;58554;52.006;5.926;2023-02-28T12:19:05;102248.94;;;20.47;26.85
70909;BME280;58554;52.006;5.926;2023-02-28T12:21:52;102243.28;;;20.74;26.94
70909;BME280;58554;52.006;5.926;2023-02-28T12:24:44;102232.69;;;20.95;26.35
70909;BME280;58554;52.006;5.926;2023-02-28T12:27:29;102227.44;;;21.16;27.38
70909;BME280;58554;52.006;5.926;2023-02-28T12:30:12;102238.25;;;21.38;26.32
70909;BME280;58554;52.006;5.926;2023-02-28T12:32:44;102232.00;;;21.49;27.34
70909;BME280;58554;52.006;5.926;2023-02-28T12:35:17;102228.66;;;21.68;27.13
70909;BME280;58554;52.006;5.926;2023-02-28T12:37:54;102228.00;;;21.87;26.47
70909;BME280;58554;52.006;5.926;2023-02-28T12:40:27;102222.34;;;22.13;26.65
70909;BME280;58554;52.006;5.926;2023-02-28T12:43:09;102216.19;;;22.43;26.87
70909;BME280;58554;52.006;5.926;2023-02-28T12:45:46;102212.34;;;22.78;25.61
70909;BME280;58554;52.006;5.926;2023-02-28T12:48:23;102215.16;;;22.97;25.16
70909;BME280;58554;52.006;5.926;2023-02-28T12:50:54;102198.16;;;22.64;24.99
70909;BME280;58554;52.006;5.926;2023-02-28T12:53:25;102205.72;;;21.96;22.19
70909;BME280;58554;52.006;5.926;2023-02-28T12:56:09;102201.78;;;21.46;24.88
70909;BME280;58554;52.006;5.926;2023-02-28T12:58:48;102204.19;;;21.60;25.98
70909;BME280;58554;52.006;5.926;2023-02-28T13:04:54;102201.16;;;22.08;23.86
70909;BME280;58554;52.006;5.926;2023-02-28T13:07:59;102196.91;;;22.27;23.91
70909;BME280;58554;52.006;5.926;2023-02-28T13:10:41;102189.88;;;22.35;25.60
70909;BME280;58554;52.006;5.926;2023-02-28T13:13:15;102191.41;;;22.49;24.95
70909;BME280;58554;52.006;5.926;2023-02-28T13:16:00;102188.06;;;22.57;22.66
70909;BME280;58554;52.006;5.926;2023-02-28T13:18:35;102177.16;;;22.58;24.15
70909;BME280;58554;52.006;5.926;2023-02-28T13:21:04;102184.56;;;22.66;24.43
70909;BME280;58554;52.006;5.926;2023-02-28T13:23:58;102178.66;;;22.72;21.76
70909;BME280;58554;52.006;5.926;2023-02-28T13:29:56;102179.91;;;22.26;24.12
70909;BME280;58554;52.006;5.926;2023-02-28T13:32:34;102174.19;;;22.19;23.02
70909;BME280;58554;52.006;5.926;2023-02-28T13:35:43;102173.19;;;22.20;22.42